createdAt,value
2023-02-24T00:00:37.687Z,101071.19
2023-02-24T00:01:52.343Z,101074.78
2023-02-24T00:03:10.915Z,101071.41
2023-02-24T00:04:38.310Z,101073.19
2023-02-24T00:06:03.488Z,101068.94
2023-02-24T00:07:29.919Z,101063.75
2023-02-24T00:08:51.986Z,101055.94
2023-02-24T00:10:19.123Z,101058.59
2023-02-24T00:11:44.820Z,101050.66
2023-02-24T00:13:06.336Z,101055.94
2023-02-24T00:14:31.933Z,101059.53
2023-02-24T00:16:01.089Z,101056.13
2023-02-24T00:17:27.612Z,101049.88
2023-02-24T00:18:51.099Z,101049.81
2023-02-24T00:20:16.493Z,101048.94
2023-02-24T00:21:38.275Z,101043.66
2023-02-24T00:23:01.278Z,101046.31
2023-02-24T00:24:25.271Z,101044.59
2023-02-24T00:25:46.832Z,101048.00
2023-02-24T00:27:11.694Z,101046.19
2023-02-24T00:28:33.903Z,101033.84
2023-02-24T00:29:57.753Z,101036.47
2023-02-24T00:31:20.485Z,101032.25
2023-02-24T00:32:43.277Z,101029.81
2023-02-24T00:34:06.881Z,101038.78
2023-02-24T00:35:30.593Z,101021.31
2023-02-24T00:36:54.209Z,101030.94
2023-02-24T00:38:17.052Z,101028.44
2023-02-24T00:39:42.170Z,101020.38
2023-02-24T00:41:12.392Z,101015.09
2023-02-24T00:42:34.884Z,101024.81
2023-02-24T00:43:59.771Z,101019.53
2023-02-24T00:45:22.260Z,101019.53
2023-02-24T00:46:46.872Z,101015.94
2023-02-24T00:48:10.657Z,101013.31
2023-02-24T00:49:38.396Z,101011.59
2023-02-24T00:51:00.991Z,101016.16
2023-02-24T00:52:23.464Z,101012.13
2023-02-24T00:53:45.020Z,101006.19
2023-02-24T00:55:15.022Z,101008.91
2023-02-24T00:56:37.845Z,101006.41
2023-02-24T00:57:59.353Z,100999.41
2023-02-24T00:59:23.817Z,101001.31
2023-02-24T01:00:47.489Z,100996.22
2023-02-24T01:02:11.316Z,101000.75
2023-02-24T01:03:33.840Z,100995.66
2023-02-24T01:04:57.677Z,100990.59
2023-02-24T01:06:21.203Z,100998.50
2023-02-24T01:07:43.706Z,100992.38
2023-02-24T01:09:08.142Z,100988.88
2023-02-24T01:10:30.657Z,100997.66
2023-02-24T01:12:10.680Z,100980.97
2023-02-24T01:13:32.355Z,100994.06
2023-02-24T01:14:55.217Z,100991.31
2023-02-24T01:16:19.518Z,100986.03
2023-02-24T01:17:41.075Z,100988.59
2023-02-24T01:19:04.533Z,100992.81
2023-02-24T01:20:30.365Z,100988.41
2023-02-24T01:21:54.950Z,100993.03
2023-02-24T01:23:17.476Z,100988.69
2023-02-24T01:24:40.304Z,100993.22
2023-02-24T01:26:04.338Z,100986.25
2023-02-24T01:27:26.848Z,100990.97
2023-02-24T01:28:48.451Z,100988.50
2023-02-24T01:30:15.754Z,100986.16
2023-02-24T01:31:38.830Z,100981.94
2023-02-24T01:33:01.654Z,100980.22
2023-02-24T01:34:23.975Z,100990.78
2023-02-24T01:35:48.131Z,100985.69
2023-02-24T01:37:09.784Z,100986.63
2023-02-24T01:38:32.248Z,100989.28
2023-02-24T01:39:54.244Z,100980.63
2023-02-24T01:41:20.160Z,100985.25
2023-02-24T01:42:42.079Z,100978.38
2023-02-24T01:44:09.545Z,100969.59
2023-02-24T01:45:36.622Z,100972.34
2023-02-24T01:47:01.282Z,100968.75
2023-02-24T01:48:24.532Z,100964.44
2023-02-24T01:49:49.717Z,100963.66
2023-02-24T01:51:13.634Z,100965.38
2023-02-24T01:52:37.432Z,100954.81
2023-02-24T01:54:00.721Z,100954.81
2023-02-24T01:55:28.912Z,100951.25
2023-02-24T01:56:52.399Z,100961.81
2023-02-24T01:58:22.111Z,100953.13
2023-02-24T01:59:46.101Z,100955.88
2023-02-24T02:01:10.134Z,100953.31
2023-02-24T02:02:31.838Z,100952.56
2023-02-24T02:04:01.383Z,100950.13
2023-02-24T02:05:23.106Z,100960.69
2023-02-24T02:06:48.890Z,100957.94
2023-02-24T02:08:11.100Z,100950.13
2023-02-24T02:09:34.790Z,100947.56
2023-02-24T02:11:02.479Z,100951.16
2023-02-24T02:12:24.389Z,100953.91
2023-02-24T02:13:50.221Z,100952.19
2023-02-24T02:15:13.403Z,100940.78
2023-02-24T02:16:47.284Z,100946.91
2023-02-24T02:18:17.681Z,100946.06
2023-02-24T02:20:15.625Z,100936.38
2023-02-24T02:22:06.782Z,100930.34
2023-02-24T02:23:58.266Z,100931.28
2023-02-24T02:25:29.089Z,100928.75
2023-02-24T02:27:11.953Z,100920.28
2023-02-24T02:29:09.978Z,100910.78
2023-02-24T02:31:09.108Z,100912.66
2023-02-24T02:33:13.038Z,100910.97
2023-02-24T02:34:50.865Z,100907.56
2023-02-24T02:36:22.225Z,100898.72
2023-02-24T02:37:53.227Z,100901.16
2023-02-24T02:39:21.707Z,100903.78
2023-02-24T02:40:49.205Z,100898.50
2023-02-24T02:42:21.587Z,100893.25
2023-02-24T02:43:32.174Z,100898.50
2023-02-24T02:44:40.539Z,100893.25
2023-02-24T02:45:48.127Z,100889.66
2023-02-24T02:46:56.416Z,100890.59
2023-02-24T02:48:04.148Z,100891.38
2023-02-24T02:49:16.821Z,100887.75
2023-02-24T02:50:26.832Z,100887.75
2023-02-24T02:51:33.769Z,100892.19
2023-02-24T02:52:42.189Z,100889.56
2023-02-24T02:53:51.772Z,100882.50
2023-02-24T02:54:57.282Z,100880.91
2023-02-24T02:56:04.425Z,100877.41
2023-02-24T02:57:11.954Z,100885.44
2023-02-24T02:58:31.713Z,100877.59
2023-02-24T02:59:37.377Z,100872.34
2023-02-24T03:00:49.985Z,100872.34
2023-02-24T03:02:01.026Z,100872.34
2023-02-24T03:03:13.052Z,100871.41
2023-02-24T03:04:18.048Z,100867.06
2023-02-24T03:05:29.501Z,100864.41
2023-02-24T03:06:33.228Z,100868.97
2023-02-24T03:07:41.130Z,100867.25
2023-02-24T03:08:49.191Z,100868.31
2023-02-24T03:09:56.392Z,100870.81
2023-02-24T03:11:00.604Z,100873.59
2023-02-24T03:12:08.211Z,100864.81
2023-02-24T03:13:13.209Z,100867.44
2023-02-24T03:14:20.203Z,100864.91
2023-02-24T03:15:25.917Z,100870.19
2023-02-24T03:16:29.153Z,100862.38
2023-02-24T03:17:34.607Z,100860.66
2023-02-24T03:18:45.012Z,100854.53
2023-02-24T03:19:54.048Z,100859.00
2023-02-24T03:21:07.447Z,100845.91
2023-02-24T03:22:13.792Z,100850.31
2023-02-24T03:23:20.714Z,100852.97
2023-02-24T03:24:24.263Z,100851.25
2023-02-24T03:25:34.133Z,100849.59
2023-02-24T03:26:41.635Z,100852.22
2023-02-24T03:27:49.969Z,100847.88
2023-02-24T03:28:59.244Z,100850.50
2023-02-24T03:30:07.441Z,100853.28
2023-02-24T03:31:13.969Z,100854.09
2023-02-24T03:32:22.532Z,100855.06
2023-02-24T03:33:40.891Z,100855.78
2023-02-24T03:34:55.094Z,100857.50
2023-02-24T03:36:01.627Z,100850.50
2023-02-24T03:37:04.954Z,100846.94
2023-02-24T03:38:17.540Z,100853.06
2023-02-24T03:39:19.227Z,100849.59
2023-02-24T03:40:28.591Z,100838.28
2023-02-24T03:41:46.894Z,100845.34
2023-02-24T03:43:05.187Z,100837.53
2023-02-24T03:44:11.155Z,100842.06
2023-02-24T03:45:13.648Z,100835.09
2023-02-24T03:46:16.831Z,100840.44
2023-02-24T03:47:20.337Z,100837.94
2023-02-24T03:48:24.623Z,100832.72
2023-02-24T03:49:26.485Z,100838.97
2023-02-24T03:50:31.748Z,100840.00
2023-02-24T03:51:36.504Z,100851.50
2023-02-24T03:52:47.209Z,100839.25
2023-02-24T03:54:02.454Z,100840.09
2023-02-24T03:55:27.576Z,100837.53
2023-02-24T03:56:43.205Z,100835.88
2023-02-24T03:58:00.852Z,100840.28
2023-02-24T03:59:14.869Z,100842.09
2023-02-24T04:00:23.206Z,100843.88
2023-02-24T04:01:34.790Z,100830.81
2023-02-24T04:02:50.083Z,100830.81
2023-02-24T04:04:00.240Z,100838.72
2023-02-24T04:05:11.911Z,100828.16
2023-02-24T04:06:19.902Z,100826.47
2023-02-24T04:07:38.780Z,100834.25
2023-02-24T04:08:45.722Z,100832.47
2023-02-24T04:09:57.028Z,100831.63
2023-02-24T04:11:05.420Z,100837.75
2023-02-24T04:12:17.063Z,100837.00
2023-02-24T04:13:24.972Z,100828.16
2023-02-24T04:14:31.734Z,100824.75
2023-02-24T04:15:38.213Z,100821.28
2023-02-24T04:16:54.056Z,100829.19
2023-02-24T04:17:57.509Z,100825.69
2023-02-24T04:19:03.864Z,100826.53
2023-02-24T04:20:10.637Z,100835.31
2023-02-24T04:21:13.354Z,100822.13
2023-02-24T04:22:19.056Z,100822.13
2023-02-24T04:23:27.772Z,100822.97
2023-02-24T04:24:32.411Z,100826.47
2023-02-24T04:25:35.606Z,100825.59
2023-02-24T04:26:40.387Z,100823.91
2023-02-24T04:27:55.383Z,100826.53
2023-02-24T04:28:57.550Z,100826.53
2023-02-24T04:30:04.745Z,100817.78
2023-02-24T04:31:10.645Z,100823.06
2023-02-24T04:32:15.171Z,100817.78
2023-02-24T04:33:17.403Z,100822.13
2023-02-24T04:34:20.387Z,100819.50
2023-02-24T04:35:22.936Z,100818.75
2023-02-24T04:36:25.711Z,100817.78
2023-02-24T04:37:33.668Z,100820.41
2023-02-24T04:38:37.917Z,100818.75
2023-02-24T04:39:50.719Z,100814.41
2023-02-24T04:40:53.276Z,100813.47
2023-02-24T04:42:01.514Z,100811.78
2023-02-24T04:43:04.821Z,100817.03
2023-02-24T04:44:06.310Z,100804.81
2023-02-24T04:45:12.821Z,100808.28
2023-02-24T04:46:14.529Z,100806.50
2023-02-24T04:47:17.045Z,100804.72
2023-02-24T04:48:30.095Z,100801.03
2023-02-24T04:49:33.893Z,100792.28
2023-02-24T04:50:46.387Z,100799.16
2023-02-24T04:51:49.365Z,100798.19
2023-02-24T04:52:53.251Z,100795.56
2023-02-24T04:53:57.058Z,100796.34
2023-02-24T04:54:59.446Z,100794.50
2023-02-24T04:56:08.624Z,100788.41
2023-02-24T04:57:10.490Z,100799.78
2023-02-24T04:58:19.025Z,100789.25
2023-02-24T04:59:30.552Z,100787.47
2023-02-24T05:00:35.715Z,100783.16
2023-02-24T05:01:39.681Z,100785.03
2023-02-24T05:02:42.183Z,100787.66
2023-02-24T05:03:45.026Z,100786.91
2023-02-24T05:04:49.435Z,100778.06
2023-02-24T05:05:56.652Z,100782.50
2023-02-24T05:07:06.204Z,100781.66
2023-02-24T05:08:11.175Z,100775.59
2023-02-24T05:09:17.797Z,100781.84
2023-02-24T05:10:20.575Z,100778.34
2023-02-24T05:11:23.431Z,100782.78
2023-02-24T05:12:25.223Z,100775.81
2023-02-24T05:13:31.471Z,100774.22
2023-02-24T05:14:33.003Z,100777.63
2023-02-24T05:15:39.183Z,100779.41
2023-02-24T05:16:43.630Z,100782.03
2023-02-24T05:17:45.236Z,100774.13
2023-02-24T05:18:47.691Z,100766.22
2023-02-24T05:20:07.670Z,100771.50
2023-02-24T05:21:31.109Z,100776.78
2023-02-24T05:22:33.419Z,100771.50
2023-02-24T05:23:39.109Z,100778.63
2023-02-24T05:24:47.857Z,100772.63
2023-02-24T05:25:56.474Z,100767.34
2023-02-24T05:26:59.195Z,100766.63
2023-02-24T05:28:04.048Z,100764.00
2023-02-24T05:29:07.870Z,100762.28
2023-02-24T05:30:11.348Z,100756.09
2023-02-24T05:31:16.389Z,100760.50
2023-02-24T05:32:19.177Z,100754.38
2023-02-24T05:33:22.567Z,100771.03
2023-02-24T05:34:35.142Z,100762.16
2023-02-24T05:35:37.093Z,100761.34
2023-02-24T05:36:41.117Z,100766.63
2023-02-24T05:37:43.017Z,100760.50
2023-02-24T05:38:46.177Z,100759.66
2023-02-24T05:39:49.098Z,100763.03
2023-02-24T05:40:57.418Z,100766.63
2023-02-24T05:42:05.628Z,100760.38
2023-02-24T05:43:08.165Z,100761.34
2023-02-24T05:44:13.091Z,100759.53
2023-02-24T05:45:15.671Z,100752.47
2023-02-24T05:46:17.271Z,100752.47
2023-02-24T05:47:21.146Z,100748.91
2023-02-24T05:48:24.781Z,100748.06
2023-02-24T05:49:31.197Z,100753.31
2023-02-24T05:50:32.838Z,100744.56
2023-02-24T05:53:55.432Z,100742.91
2023-02-24T05:55:02.533Z,100742.13
2023-02-24T05:56:05.620Z,100730.75
2023-02-24T05:57:11.514Z,100736.00
2023-02-24T05:58:13.422Z,100740.44
2023-02-24T05:59:18.652Z,100730.75
2023-02-24T06:00:25.743Z,100735.16
2023-02-24T06:01:30.259Z,100733.50
2023-02-24T06:02:37.431Z,100730.84
2023-02-24T06:03:41.301Z,100731.78
2023-02-24T06:04:50.726Z,100731.72
2023-02-24T06:05:53.215Z,100728.22
2023-02-24T06:06:55.787Z,100729.88
2023-02-24T06:08:11.649Z,100735.16
2023-02-24T06:09:13.967Z,100722.75
2023-02-24T06:10:21.456Z,100728.03
2023-02-24T06:11:23.632Z,100724.47
2023-02-24T06:12:28.591Z,100719.19
2023-02-24T06:13:30.301Z,100727.09
2023-02-24T06:14:34.026Z,100720.00
2023-02-24T06:15:37.386Z,100713.91
2023-02-24T06:16:40.997Z,100717.38
2023-02-24T06:17:44.969Z,100717.38
2023-02-24T06:18:49.382Z,100705.88
2023-02-24T06:19:53.678Z,100709.38
2023-02-24T06:20:55.473Z,100709.38
2023-02-24T06:22:01.464Z,100706.75
2023-02-24T06:23:05.211Z,100705.03
2023-02-24T06:24:14.357Z,100703.25
2023-02-24T06:25:18.506Z,100701.34
2023-02-24T06:26:21.517Z,100699.56
2023-02-24T06:27:24.402Z,100708.25
2023-02-24T06:28:37.042Z,100702.13
2023-02-24T06:29:38.690Z,100711.81
2023-02-24T06:30:41.324Z,100704.75
2023-02-24T06:31:54.562Z,100699.47
2023-02-24T06:32:57.357Z,100700.41
2023-02-24T06:33:59.136Z,100701.28
2023-02-24T06:35:01.720Z,100698.53
2023-02-24T06:36:04.707Z,100696.00
2023-02-24T06:37:09.090Z,100708.25
2023-02-24T06:38:10.700Z,100699.38
2023-02-24T06:39:14.650Z,100702.97
2023-02-24T06:40:18.071Z,100697.69
2023-02-24T06:41:21.894Z,100704.63
2023-02-24T06:42:23.808Z,100699.38
2023-02-24T06:43:28.152Z,100707.28
2023-02-24T06:44:30.085Z,100708.25
2023-02-24T06:45:32.555Z,100703.91
2023-02-24T06:46:34.245Z,100697.69
2023-02-24T06:47:36.782Z,100705.59
2023-02-24T06:48:38.673Z,100709.09
2023-02-24T06:49:47.799Z,100709.09
2023-02-24T06:51:00.650Z,100696.84
2023-02-24T06:52:18.208Z,100696.84
2023-02-24T06:53:21.722Z,100698.53
2023-02-24T06:54:25.609Z,100697.59
2023-02-24T06:55:30.277Z,100694.94
2023-02-24T06:56:38.257Z,100687.88
2023-02-24T06:57:43.814Z,100695.78
2023-02-24T06:58:48.451Z,100696.66
2023-02-24T06:59:50.783Z,100692.22
2023-02-24T07:00:57.653Z,100688.63
2023-02-24T07:02:03.380Z,100686.84
2023-02-24T07:03:15.631Z,100688.63
2023-02-24T07:04:18.583Z,100682.41
2023-02-24T07:05:24.060Z,100687.59
2023-02-24T07:06:40.913Z,100690.22
2023-02-24T07:07:45.866Z,100686.75
2023-02-24T07:08:59.364Z,100690.13
2023-02-24T07:10:01.864Z,100674.31
2023-02-24T07:11:07.797Z,100682.97
2023-02-24T07:12:11.079Z,100677.72
2023-02-24T07:13:13.444Z,100681.06
2023-02-24T07:14:15.997Z,100673.25
2023-02-24T07:15:17.660Z,100684.66
2023-02-24T07:16:25.215Z,100684.66
2023-02-24T07:17:27.801Z,100678.44
2023-02-24T07:18:30.815Z,100672.31
2023-02-24T07:19:33.652Z,100672.22
2023-02-24T07:20:43.544Z,100671.19
2023-02-24T07:21:50.034Z,100672.75
2023-02-24T07:22:53.103Z,100671.81
2023-02-24T07:23:58.766Z,100678.78
2023-02-24T07:25:01.841Z,100666.44
2023-02-24T07:26:10.112Z,100670.69
2023-02-24T07:27:22.331Z,100673.19
2023-02-24T07:28:25.179Z,100665.19
2023-02-24T07:29:29.416Z,100672.25
2023-02-24T07:30:33.166Z,100670.56
2023-02-24T07:31:37.139Z,100670.47
2023-02-24T07:32:40.415Z,100669.50
2023-02-24T07:33:45.085Z,100661.59
2023-02-24T07:34:47.564Z,100660.88
2023-02-24T07:35:50.959Z,100664.22
2023-02-24T07:36:54.575Z,100659.81
2023-02-24T07:38:01.832Z,100665.00
2023-02-24T07:39:05.472Z,100659.72
2023-02-24T07:40:09.570Z,100655.38
2023-02-24T07:41:15.171Z,100649.25
2023-02-24T07:42:18.261Z,100646.63
2023-02-24T07:43:30.522Z,100652.75
2023-02-24T07:44:36.560Z,100650.03
2023-02-24T07:45:38.190Z,100642.09
2023-02-24T07:46:42.890Z,100638.50
2023-02-24T07:47:46.809Z,100644.41
2023-02-24T07:48:48.333Z,100639.16
2023-02-24T07:49:51.094Z,100637.34
2023-02-24T07:50:59.304Z,100634.63
2023-02-24T07:52:01.807Z,100638.00
2023-02-24T07:53:05.627Z,100636.09
2023-02-24T07:54:08.719Z,100630.72
2023-02-24T07:55:12.040Z,100628.09
2023-02-24T07:56:17.681Z,100624.59
2023-02-24T07:57:20.182Z,100626.38
2023-02-24T07:58:23.245Z,100620.25
2023-02-24T07:59:27.281Z,100620.38
2023-02-24T08:00:31.010Z,100625.53
2023-02-24T08:01:38.818Z,100625.44
2023-02-24T08:02:41.441Z,100627.16
2023-02-24T08:03:43.000Z,100620.06
2023-02-24T08:04:49.906Z,100621.03
2023-02-24T08:05:53.689Z,100623.66
2023-02-24T08:06:59.002Z,100621.97
2023-02-24T08:08:12.888Z,100617.63
2023-02-24T08:09:17.274Z,100621.22
2023-02-24T08:10:36.756Z,100620.38
2023-02-24T08:11:42.462Z,100615.09
2023-02-24T08:12:45.121Z,100616.91
2023-02-24T08:13:46.691Z,100614.25
2023-02-24T08:14:51.627Z,100605.41
2023-02-24T08:15:56.370Z,100612.34
2023-02-24T08:16:59.565Z,100612.13
2023-02-24T08:18:02.675Z,100611.13
2023-02-24T08:19:04.324Z,100608.34
2023-02-24T08:20:22.413Z,100602.88
2023-02-24T08:21:27.243Z,100603.63
2023-02-24T08:22:37.112Z,100599.94
2023-02-24T08:23:44.582Z,100598.84
2023-02-24T08:24:50.031Z,100596.13
2023-02-24T08:25:53.622Z,100597.81
2023-02-24T08:27:05.141Z,100597.59
2023-02-24T08:28:11.253Z,100595.78
2023-02-24T08:29:13.153Z,100597.38
2023-02-24T08:30:23.286Z,100593.91
2023-02-24T08:31:26.513Z,100592.94
2023-02-24T08:32:33.849Z,100589.38
2023-02-24T08:33:37.292Z,100587.66
2023-02-24T08:34:39.520Z,100587.66
2023-02-24T08:35:44.621Z,100582.38
2023-02-24T08:36:55.667Z,100582.31
2023-02-24T08:38:00.670Z,100578.59
2023-02-24T08:39:04.731Z,100574.25
2023-02-24T08:40:29.266Z,100568.03
2023-02-24T08:41:51.395Z,100563.59
2023-02-24T08:42:54.777Z,100563.47
2023-02-24T08:44:02.833Z,100562.53
2023-02-24T08:45:05.361Z,100559.81
2023-02-24T08:46:18.281Z,100554.19
2023-02-24T08:47:24.276Z,100561.06
2023-02-24T08:48:36.860Z,100558.31
2023-02-24T08:49:40.315Z,100561.69
2023-02-24T08:50:45.464Z,100558.94
2023-02-24T08:51:52.752Z,100560.50
2023-02-24T08:52:54.519Z,100562.22
2023-02-24T08:53:58.618Z,100559.56
2023-02-24T08:55:01.695Z,100556.00
2023-02-24T08:56:09.379Z,100555.22
2023-02-24T08:57:15.123Z,100551.66
2023-02-24T08:58:18.829Z,100554.28
2023-02-24T08:59:37.593Z,100550.72
2023-02-24T09:00:49.066Z,100545.44
2023-02-24T09:02:13.093Z,100549.94
2023-02-24T09:03:27.750Z,100545.66
2023-02-24T09:04:30.304Z,100547.31
2023-02-24T09:05:41.834Z,100544.59
2023-02-24T09:06:47.249Z,100533.91
2023-02-24T09:07:54.591Z,100536.31
2023-02-24T09:09:11.849Z,100534.44
2023-02-24T09:10:18.416Z,100545.75
2023-02-24T09:11:22.690Z,100533.41
2023-02-24T09:12:28.978Z,100536.88
2023-02-24T09:13:32.943Z,100534.25
2023-02-24T09:14:37.492Z,100531.59
2023-02-24T09:15:51.177Z,100533.28
2023-02-24T09:17:03.184Z,100535.94
2023-02-24T09:18:08.161Z,100543.00
2023-02-24T09:19:24.843Z,100539.53
2023-02-24T09:20:45.081Z,100534.44
2023-02-24T09:22:10.384Z,100531.78
2023-02-24T09:23:19.945Z,100534.66
2023-02-24T09:24:27.074Z,100536.44
2023-02-24T09:25:41.364Z,100526.72
2023-02-24T09:26:44.435Z,100521.31
2023-02-24T09:27:52.086Z,100521.13
2023-02-24T09:28:58.714Z,100517.47
2023-02-24T09:30:07.979Z,100518.28
2023-02-24T09:31:10.676Z,100508.34
2023-02-24T09:32:14.671Z,100516.25
2023-02-24T09:33:21.064Z,100508.34
2023-02-24T09:34:30.006Z,100509.31
2023-02-24T09:35:36.467Z,100512.91
2023-02-24T09:37:02.785Z,100511.19
2023-02-24T09:38:05.524Z,100507.00
2023-02-24T09:39:14.669Z,100514.91
2023-02-24T09:40:37.401Z,100514.06
2023-02-24T09:41:56.079Z,100516.59
2023-02-24T09:42:58.538Z,100519.25
2023-02-24T09:44:07.317Z,100509.63
2023-02-24T09:45:15.805Z,100506.16
2023-02-24T09:46:18.394Z,100505.28
2023-02-24T09:47:39.499Z,100489.34
2023-02-24T09:48:51.315Z,100498.00
2023-02-24T09:50:13.984Z,100479.41
2023-02-24T09:51:29.077Z,100483.72
2023-02-24T09:52:42.219Z,100481.09
2023-02-24T09:53:57.403Z,100480.38
2023-02-24T09:55:25.053Z,100481.44
2023-02-24T09:56:36.864Z,100485.13
2023-02-24T09:58:16.184Z,100485.97
2023-02-24T09:59:37.835Z,100478.03
2023-02-24T10:00:58.291Z,100478.03
2023-02-24T10:02:29.126Z,100483.31
2023-02-24T10:03:48.207Z,100477.00
2023-02-24T10:05:11.330Z,100470.88
2023-02-24T10:06:26.700Z,100479.53
2023-02-24T10:07:41.582Z,100473.53
2023-02-24T10:08:58.891Z,100477.84
2023-02-24T10:10:20.690Z,100465.47
2023-02-24T10:11:36.352Z,100472.34
2023-02-24T10:12:53.165Z,100466.00
2023-02-24T10:14:03.530Z,100469.47
2023-02-24T10:15:41.680Z,100466.84
2023-02-24T10:16:46.327Z,100460.72
2023-02-24T10:18:03.878Z,100458.16
2023-02-24T10:19:15.874Z,100451.22
2023-02-24T10:20:39.325Z,100448.59
2023-02-24T10:21:49.738Z,100449.53
2023-02-24T10:23:09.838Z,100451.47
2023-02-24T10:24:22.754Z,100448.81
2023-02-24T10:25:41.135Z,100443.63
2023-02-24T10:27:00.750Z,100442.78
2023-02-24T10:28:30.374Z,100446.38
2023-02-24T10:30:01.067Z,100438.66
2023-02-24T10:31:26.313Z,100430.94
2023-02-24T10:32:48.854Z,100436.97
2023-02-24T10:33:56.656Z,100430.72
2023-02-24T10:34:59.720Z,100432.56
2023-02-24T10:36:10.522Z,100436.97
2023-02-24T10:37:29.383Z,100429.06
2023-02-24T10:38:45.298Z,100433.38
2023-02-24T10:39:58.439Z,100429.91
2023-02-24T10:41:06.138Z,100423.78
2023-02-24T10:42:26.574Z,100420.41
2023-02-24T10:43:46.010Z,100425.91
2023-02-24T10:45:17.247Z,100421.69
2023-02-24T10:46:41.119Z,100423.63
2023-02-24T10:47:56.269Z,100419.16
2023-02-24T10:49:16.174Z,100412.94
2023-02-24T10:50:32.905Z,100411.75
2023-02-24T10:51:40.323Z,100411.63
2023-02-24T10:53:11.277Z,100406.34
2023-02-24T10:54:44.809Z,100405.41
2023-02-24T10:56:31.963Z,100407.31
2023-02-24T10:57:58.182Z,100404.69
2023-02-24T10:59:32.773Z,100401.44
2023-02-24T11:01:12.340Z,100400.69
2023-02-24T11:02:32.777Z,100408.50
2023-02-24T11:04:01.917Z,100401.53
2023-02-24T11:05:27.037Z,100395.75
2023-02-24T11:06:52.547Z,100388.16
2023-02-24T11:08:26.012Z,100391.88
2023-02-24T11:09:51.956Z,100389.31
2023-02-24T11:11:20.098Z,100382.84
2023-02-24T11:12:55.634Z,100387.38
2023-02-24T11:14:22.233Z,100378.72
2023-02-24T11:16:05.094Z,100381.38
2023-02-24T11:17:26.879Z,100376.31
2023-02-24T11:18:47.768Z,100373.28
2023-02-24T11:20:10.652Z,100371.81
2023-02-24T11:21:26.675Z,100367.69
2023-02-24T11:22:42.875Z,100369.50
2023-02-24T11:23:59.430Z,100367.81
2023-02-24T11:25:27.186Z,100363.28
2023-02-24T11:26:42.869Z,100358.13
2023-02-24T11:27:53.795Z,100352.00
2023-02-24T11:29:21.331Z,100350.53
2023-02-24T11:30:34.219Z,100343.56
2023-02-24T11:32:02.034Z,100354.97
2023-02-24T11:33:23.143Z,100345.97
2023-02-24T11:34:37.102Z,100343.34
2023-02-24T11:35:59.076Z,100345.25
2023-02-24T11:37:23.005Z,100348.00
2023-02-24T11:38:41.905Z,100341.91
2023-02-24T11:39:53.209Z,100342.63
2023-02-24T11:41:05.204Z,100339.88
2023-02-24T11:42:14.777Z,100341.56
2023-02-24T11:43:20.791Z,100336.41
2023-02-24T11:44:39.461Z,100333.63
2023-02-24T11:45:48.224Z,100330.91
2023-02-24T11:46:54.337Z,100332.47
2023-02-24T11:48:02.033Z,100315.81
2023-02-24T11:49:26.312Z,100321.31
2023-02-24T11:50:46.627Z,100323.22
2023-02-24T11:51:51.080Z,100315.31
2023-02-24T11:52:57.510Z,100311.06
2023-02-24T11:54:04.102Z,100313.84
2023-02-24T11:55:22.387Z,100305.81
2023-02-24T11:56:31.831Z,100310.75
2023-02-24T11:57:43.450Z,100299.25
2023-02-24T11:59:03.097Z,100300.72
2023-02-24T12:00:13.298Z,100298.81
2023-02-24T12:01:33.614Z,100302.16
2023-02-24T12:02:44.803Z,100296.88
2023-02-24T12:03:55.254Z,100294.25
2023-02-24T12:05:14.234Z,100284.44
2023-02-24T12:06:28.889Z,100288.50
2023-02-24T12:07:45.050Z,100287.56
2023-02-24T12:09:02.699Z,100281.44
2023-02-24T12:10:18.161Z,100282.53
2023-02-24T12:11:28.177Z,100277.69
2023-02-24T12:12:36.590Z,100271.19
2023-02-24T12:13:41.914Z,100275.75
2023-02-24T12:14:57.380Z,100272.38
2023-02-24T12:16:07.658Z,100282.19
2023-02-24T12:17:20.384Z,100265.44
2023-02-24T12:18:28.097Z,100261.94
2023-02-24T12:19:52.398Z,100269.94
2023-02-24T12:20:59.306Z,100263.84
2023-02-24T12:22:11.816Z,100263.03
2023-02-24T12:23:24.828Z,100262.03
2023-02-24T12:24:38.034Z,100263.84
2023-02-24T12:26:17.573Z,100261.09
2023-02-24T12:27:34.709Z,100258.47
2023-02-24T12:29:18.612Z,100261.09
2023-02-24T12:30:50.799Z,100262.78
2023-02-24T12:32:15.731Z,100264.69
2023-02-24T12:33:49.122Z,100252.66
2023-02-24T12:35:07.329Z,100245.97
2023-02-24T12:36:22.525Z,100247.84
2023-02-24T12:37:47.199Z,100259.38
2023-02-24T12:39:06.856Z,100250.63
2023-02-24T12:40:30.885Z,100255.03
2023-02-24T12:41:59.188Z,100240.16
2023-02-24T12:43:13.522Z,100241.13
2023-02-24T12:44:35.364Z,100239.44
2023-02-24T12:45:53.190Z,100237.75
2023-02-24T12:47:10.787Z,100243.25
2023-02-24T12:48:46.311Z,100230.91
2023-02-24T12:50:10.168Z,100225.50
2023-02-24T12:51:27.933Z,100224.78
2023-02-24T12:52:53.312Z,100216.19
2023-02-24T12:54:03.474Z,100217.97
2023-02-24T12:55:14.635Z,100210.16
2023-02-24T12:56:22.323Z,100217.13
2023-02-24T12:57:32.513Z,100218.81
2023-02-24T12:58:39.115Z,100214.47
2023-02-24T12:59:42.140Z,100210.78
2023-02-24T13:01:05.694Z,100209.69
2023-02-24T13:02:17.879Z,100206.13
2023-02-24T13:03:32.310Z,100200.84
2023-02-24T13:04:44.156Z,100197.50
2023-02-24T13:05:51.255Z,100202.75
2023-02-24T13:07:02.125Z,100202.75
2023-02-24T13:08:25.766Z,100192.84
2023-02-24T13:09:36.653Z,100193.69
2023-02-24T13:10:47.201Z,100190.81
2023-02-24T13:12:06.247Z,100188.19
2023-02-24T13:13:15.399Z,100182.91
2023-02-24T13:14:31.773Z,100178.25
2023-02-24T13:15:33.707Z,100183.28
2023-02-24T13:16:46.291Z,100175.25
2023-02-24T13:17:51.477Z,100177.88
2023-02-24T13:19:06.014Z,100180.44
2023-02-24T13:20:31.853Z,100172.38
2023-02-24T13:21:44.278Z,100171.44
2023-02-24T13:22:58.775Z,100173.13
2023-02-24T13:24:22.981Z,100172.06
2023-02-24T13:25:38.385Z,100160.66
2023-02-24T13:26:49.375Z,100166.88
2023-02-24T13:27:59.944Z,100168.69
2023-02-24T13:29:14.857Z,100168.56
2023-02-24T13:30:28.039Z,100160.66
2023-02-24T13:31:43.496Z,100163.19
2023-02-24T13:33:05.900Z,100166.56
2023-02-24T13:34:15.146Z,100160.44
2023-02-24T13:35:33.527Z,100161.28
2023-02-24T13:36:47.138Z,100164.75
2023-02-24T13:38:09.398Z,100156.84
2023-02-24T13:39:23.893Z,100165.69
2023-02-24T13:40:27.115Z,100153.47
2023-02-24T13:41:40.549Z,100155.16
2023-02-24T13:42:43.438Z,100152.50
2023-02-24T13:43:55.833Z,100146.28
2023-02-24T13:45:06.186Z,100143.66
2023-02-24T13:46:18.456Z,100145.22
2023-02-24T13:48:02.447Z,100149.66
2023-02-24T13:49:24.515Z,100150.50
2023-02-24T13:50:42.269Z,100146.06
2023-02-24T13:52:00.203Z,100138.16
2023-02-24T13:53:28.401Z,100136.34
2023-02-24T13:55:15.583Z,100135.50
2023-02-24T13:56:38.284Z,100126.84
2023-02-24T13:58:05.706Z,100129.72